Texas City — WDD4983 — position and weather

sailwx.info

Track history (hours):
 
Tides and Currents Weather Stations Pressure Air Temp Water Temp Dewpoint Dewpoint Depression Visibility Wind Speed Wind Dir Waves Ship Positions

Texas City

Owner: Marathon Petroleum Company LP, Findlay, OH. More information available from US FCC via Universal Licensing System and Coast Guard Vessel Documentation Center.

Last reported at 2017-May-27 23:26 UTC. Time now 2017-May-30 01:32 UTC.
Position N 29°23' W 094°54'.

Length 224 m; draft 2.9 m.

Type: . MMSI: 367135470.

Date/timePositionNaut miles runAvg speedWind from/ knotsBaromVisibWave heightAir tempDewpointWater temp
2017-May-27 23:26N 29°23' W 094°54'1 0.0
2017-May-26 08:42N 29°22' W 094°53'0 0.0
2017-May-26 08:31N 29°22' W 094°53'1 0.3
2017-May-26 06:33N 29°22' W 094°53'0 0.6
2017-May-26 06:30N 29°22' W 094°53'0 0.3
2017-May-26 05:44N 29°22' W 094°53'0 0.0
2017-May-26 05:29N 29°22' W 094°53'4 0.2
2017-May-25 11:28N 29°26' W 094°50'2 5.2
2017-May-25 11:00N 29°28' W 094°51'3 5.3
2017-May-25 10:30N 29°30' W 094°52'3 5.2
2017-May-25 10:00N 29°32' W 094°54'3 5.9
2017-May-25 09:30N 29°35' W 094°56'3 6.3
2017-May-25 09:00N 29°38' W 094°58'3 6.5
2017-May-25 08:30N 29°41' W 094°59'3 6.1
2017-May-25 08:00N 29°43' W 095°01'3 6.1
2017-May-25 07:29N 29°45' W 095°04'2 4.3
2017-May-25 07:01N 29°47' W 095°04'0 0.0
2017-May-25 06:03N 29°47' W 095°04'0 0.1
2017-May-25 05:58N 29°47' W 095°04'0 0.1
2017-May-25 05:13N 29°47' W 095°04'1 2.9
2017-May-25 04:53N 29°46' W 095°05'2 4.1
2017-May-25 04:28N 29°45' W 095°06'2 5.1
2017-May-25 04:00N 29°44' W 095°09'3 5.7
2017-May-25 03:30N 29°45' W 095°12'1 1.3
2017-May-25 03:00N 29°44' W 095°12'0 0.0
2017-May-25 02:28N 29°44' W 095°12'0 0.0
2017-May-25 02:00N 29°44' W 095°12'0 0.0
2017-May-25 01:20N 29°44' W 095°12'0 0.0
2017-May-25 00:58N 29°44' W 095°12'0 0.0
2017-May-25 00:30N 29°44' W 095°12'0 0.0
2017-May-24 23:46N 29°44' W 095°12'0 0.0
2017-May-24 23:30N 29°44' W 095°12'0 0.0
2017-May-24 22:59N 29°44' W 095°12'0 0.0
2017-May-24 16:38N 29°44' W 095°12'0 0.0
2017-May-24 14:45N 29°44' W 095°12'0 0.0
2017-May-24 14:30N 29°44' W 095°12'0 0.0
2017-May-24 13:30N 29°44' W 095°12'0 0.0
2017-May-24 13:01N 29°44' W 095°12'0 0.0
2017-May-24 12:29N 29°44' W 095°12'0 0.0
2017-May-24 12:00N 29°44' W 095°12'0 0.0
2017-May-24 11:29N 29°44' W 095°12'0 0.0
2017-May-24 11:00N 29°44' W 095°12'0 0.0
2017-May-24 10:30N 29°44' W 095°12'0 0.0
2017-May-24 09:57N 29°44' W 095°12'0 0.6
2017-May-24 09:28N 29°44' W 095°12'2 4.3
2017-May-24 09:01N 29°45' W 095°10'3 5.4
2017-May-24 08:30N 29°44' W 095°07'4 5.8
2017-May-24 07:52N 29°47' W 095°04'0 1.2
2017-May-24 07:30N 29°47' W 095°04'2 0.1
2017-May-23 04:09N 29°46' W 095°06'1 3.8
2017-May-23 03:59N 29°46' W 095°05'1 0.3
2017-May-23 01:15N 29°46' W 095°06'1 3.9
2017-May-23 01:00N 29°46' W 095°05'2 4.1
2017-May-23 00:30N 29°47' W 095°04'0 0.0
2017-May-23 00:00N 29°47' W 095°04'0 0.0
2017-May-22 23:30N 29°47' W 095°04'0 0.0
2017-May-22 23:01N 29°47' W 095°04'0 0.1
2017-May-22 22:25N 29°47' W 095°04'0 0.1
2017-May-22 22:00N 29°47' W 095°04'0 0.0
2017-May-22 21:30N 29°47' W 095°04'1 1.1
2017-May-22 20:58N 29°47' W 095°04'2 3.0
2017-May-22 20:22N 29°46' W 095°06'0 0.0
2017-May-22 11:57N 29°46' W 095°06'1 1.6
2017-May-22 11:29N 29°46' W 095°05'3 5.3
2017-May-22 10:56N 29°44' W 095°08'2 4.6
2017-May-22 10:29N 29°45' W 095°10'3 5.0
2017-May-22 09:57N 29°43' W 095°13'0 0.9
2017-May-22 09:30N 29°44' W 095°13'0 0.1
2017-May-22 09:00N 29°44' W 095°13'0 0.0
2017-May-22 07:32N 29°44' W 095°13'0 0.4
2017-May-22 07:31N 29°44' W 095°13'0 0.0
2017-May-22 06:54N 29°44' W 095°13'0 0.1
2017-May-22 06:31N 29°44' W 095°13'0 0.0
2017-May-22 06:00N 29°44' W 095°13'0 0.0
2017-May-22 05:30N 29°44' W 095°13'0 0.0
2017-May-22 05:00N 29°44' W 095°13'0 0.0
2017-May-22 04:30N 29°44' W 095°13'0 0.0
2017-May-22 04:00N 29°44' W 095°13'0 0.0
2017-May-22 03:30N 29°44' W 095°13'0 0.0
2017-May-22 03:00N 29°44' W 095°13'0 0.0
2017-May-22 02:30N 29°44' W 095°13'0 0.0
2017-May-22 02:00N 29°44' W 095°13'0 0.0
2017-May-22 01:30N 29°44' W 095°13'0 0.0
2017-May-22 01:00N 29°44' W 095°13'0 0.0
2017-May-22 00:30N 29°44' W 095°13'0 0.0
2017-May-22 00:01N 29°44' W 095°13'0 0.0
2017-May-21 23:30N 29°44' W 095°13'0 0.0
2017-May-21 23:00N 29°44' W 095°13'0 0.0
2017-May-21 22:30N 29°44' W 095°13'0 0.0
2017-May-21 22:00N 29°44' W 095°13'0 0.0
2017-May-21 21:29N 29°44' W 095°13'0 0.0
2017-May-21 20:59N 29°44' W 095°13'0 0.0
2017-May-21 20:30N 29°44' W 095°13'0 0.0
2017-May-21 20:00N 29°44' W 095°13'0 0.0
2017-May-21 19:19N 29°44' W 095°13'0 0.0
2017-May-21 19:00N 29°44' W 095°13'0 0.0
2017-May-21 18:27N 29°44' W 095°13'0 0.0
2017-May-21 18:00N 29°44' W 095°13'0 0.0
2017-May-21 17:30N 29°44' W 095°13'0 0.0
2017-May-21 16:52N 29°44' W 095°13'0 0.0
2017-May-21 16:16N 29°44' W 095°13'0 0.0
2017-May-21 16:00N 29°44' W 095°13'0 0.0
2017-May-21 15:25N 29°44' W 095°13'0 0.0
2017-May-21 14:50N 29°44' W 095°13'0 0.0
2017-May-21 14:29N 29°44' W 095°13'0 0.0
2017-May-21 13:30N 29°44' W 095°13'0 0.0
2017-May-21 13:01N 29°44' W 095°13'0 0.0
2017-May-21 12:25N 29°44' W 095°13'0 0.0
2017-May-21 11:59N 29°44' W 095°13'0 0.0
2017-May-21 11:27N 29°44' W 095°13'0 0.0
2017-May-21 11:00N 29°44' W 095°13'0 0.0
2017-May-21 10:17N 29°44' W 095°13'0 0.0
2017-May-21 10:00N 29°44' W 095°13'0 0.0
2017-May-21 09:30N 29°44' W 095°13'0 0.0
2017-May-21 08:54N 29°44' W 095°13'0 0.0
2017-May-21 08:30N 29°44' W 095°13'0 0.0
2017-May-21 08:00N 29°44' W 095°13'0 0.0
2017-May-21 07:27N 29°44' W 095°13'0 0.0
2017-May-21 06:59N 29°44' W 095°13'0 0.0
2017-May-21 06:30N 29°44' W 095°13'0 0.0
2017-May-21 06:00N 29°44' W 095°13'0 0.0
2017-May-21 05:30N 29°44' W 095°13'0 0.0
2017-May-21 05:00N 29°44' W 095°13'0 0.4
2017-May-21 04:29N 29°43' W 095°13'2 3.8
2017-May-21 03:56N 29°45' W 095°11'2 3.9
2017-May-21 03:30N 29°44' W 095°09'3 5.1
2017-May-21 02:59N 29°45' W 095°06'3 2.6
2017-May-21 01:39N 29°47' W 095°04'1 0.6
2017-May-21 00:41N 29°47' W 095°04'1 5.6
2017-May-21 00:27N 29°46' W 095°05'  
2017-May-18 05:46N 29°46' W 095°06'2 4.2
2017-May-18 05:24N 29°47' W 095°04'0 0.1
2017-May-18 04:43N 29°47' W 095°04'1 3.9
2017-May-18 04:26N 29°46' W 095°05'2 4.5
2017-May-18 04:00N 29°44' W 095°03'2 4.7
2017-May-18 03:30N 29°43' W 095°01'2 4.7
2017-May-18 03:00N 29°41' W 094°59'3 5.2
2017-May-18 02:30N 29°39' W 094°58'3 5.4
2017-May-18 02:00N 29°37' W 094°57'3 5.4
2017-May-18 01:30N 29°34' W 094°55'3 5.5
2017-May-18 01:00N 29°32' W 094°54'3 5.8
2017-May-18 00:28N 29°29' W 094°52'  
Track history (hours):
 
Tides and Currents Weather Stations Pressure Air Temp Water Temp Dewpoint Dewpoint Depression Visibility Wind Speed Wind Dir Waves Ship Positions

Texas City

Owner: Marathon Petroleum Company LP, Findlay, OH. More information available from US FCC via Universal Licensing System and Coast Guard Vessel Documentation Center.

Last reported at 2017-May-27 23:26 UTC. Time now 2017-May-30 01:32 UTC.
Position N 29°23' W 094°54'.

Length 224 m; draft 2.9 m.

Type: . MMSI: 367135470.

Date/timePositionNaut miles runAvg speedWind from/ knotsBaromVisibWave heightAir tempDewpointWater temp
2017-May-27 23:26N 29°23' W 094°54'1 0.0
2017-May-26 08:42N 29°22' W 094°53'0 0.0
2017-May-26 08:31N 29°22' W 094°53'1 0.3
2017-May-26 06:33N 29°22' W 094°53'0 0.6
2017-May-26 06:30N 29°22' W 094°53'0 0.3
2017-May-26 05:44N 29°22' W 094°53'0 0.0
2017-May-26 05:29N 29°22' W 094°53'4 0.2
2017-May-25 11:28N 29°26' W 094°50'2 5.2
2017-May-25 11:00N 29°28' W 094°51'3 5.3
2017-May-25 10:30N 29°30' W 094°52'3 5.2
2017-May-25 10:00N 29°32' W 094°54'3 5.9
2017-May-25 09:30N 29°35' W 094°56'3 6.3
2017-May-25 09:00N 29°38' W 094°58'3 6.5
2017-May-25 08:30N 29°41' W 094°59'3 6.1
2017-May-25 08:00N 29°43' W 095°01'3 6.1
2017-May-25 07:29N 29°45' W 095°04'2 4.3
2017-May-25 07:01N 29°47' W 095°04'0 0.0
2017-May-25 06:03N 29°47' W 095°04'0 0.1
2017-May-25 05:58N 29°47' W 095°04'0 0.1
2017-May-25 05:13N 29°47' W 095°04'1 2.9
2017-May-25 04:53N 29°46' W 095°05'2 4.1
2017-May-25 04:28N 29°45' W 095°06'2 5.1
2017-May-25 04:00N 29°44' W 095°09'3 5.7
2017-May-25 03:30N 29°45' W 095°12'1 1.3
2017-May-25 03:00N 29°44' W 095°12'0 0.0
2017-May-25 02:28N 29°44' W 095°12'0 0.0
2017-May-25 02:00N 29°44' W 095°12'0 0.0
2017-May-25 01:20N 29°44' W 095°12'0 0.0
2017-May-25 00:58N 29°44' W 095°12'0 0.0
2017-May-25 00:30N 29°44' W 095°12'0 0.0
2017-May-24 23:46N 29°44' W 095°12'0 0.0
2017-May-24 23:30N 29°44' W 095°12'0 0.0
2017-May-24 22:59N 29°44' W 095°12'0 0.0
2017-May-24 16:38N 29°44' W 095°12'0 0.0
2017-May-24 14:45N 29°44' W 095°12'0 0.0
2017-May-24 14:30N 29°44' W 095°12'0 0.0
2017-May-24 13:30N 29°44' W 095°12'0 0.0
2017-May-24 13:01N 29°44' W 095°12'0 0.0
2017-May-24 12:29N 29°44' W 095°12'0 0.0
2017-May-24 12:00N 29°44' W 095°12'0 0.0
2017-May-24 11:29N 29°44' W 095°12'0 0.0
2017-May-24 11:00N 29°44' W 095°12'0 0.0
2017-May-24 10:30N 29°44' W 095°12'0 0.0
2017-May-24 09:57N 29°44' W 095°12'0 0.6
2017-May-24 09:28N 29°44' W 095°12'2 4.3
2017-May-24 09:01N 29°45' W 095°10'3 5.4
2017-May-24 08:30N 29°44' W 095°07'4 5.8
2017-May-24 07:52N 29°47' W 095°04'0 1.2
2017-May-24 07:30N 29°47' W 095°04'2 0.1
2017-May-23 04:09N 29°46' W 095°06'1 3.8
2017-May-23 03:59N 29°46' W 095°05'1 0.3
2017-May-23 01:15N 29°46' W 095°06'1 3.9
2017-May-23 01:00N 29°46' W 095°05'2 4.1
2017-May-23 00:30N 29°47' W 095°04'0 0.0
2017-May-23 00:00N 29°47' W 095°04'0 0.0
2017-May-22 23:30N 29°47' W 095°04'0 0.0
2017-May-22 23:01N 29°47' W 095°04'0 0.1
2017-May-22 22:25N 29°47' W 095°04'0 0.1
2017-May-22 22:00N 29°47' W 095°04'0 0.0
2017-May-22 21:30N 29°47' W 095°04'1 1.1
2017-May-22 20:58N 29°47' W 095°04'2 3.0
2017-May-22 20:22N 29°46' W 095°06'0 0.0
2017-May-22 11:57N 29°46' W 095°06'1 1.6
2017-May-22 11:29N 29°46' W 095°05'3 5.3
2017-May-22 10:56N 29°44' W 095°08'2 4.6
2017-May-22 10:29N 29°45' W 095°10'3 5.0
2017-May-22 09:57N 29°43' W 095°13'0 0.9
2017-May-22 09:30N 29°44' W 095°13'0 0.1
2017-May-22 09:00N 29°44' W 095°13'0 0.0
2017-May-22 07:32N 29°44' W 095°13'0 0.4
2017-May-22 07:31N 29°44' W 095°13'0 0.0
2017-May-22 06:54N 29°44' W 095°13'0 0.1
2017-May-22 06:31N 29°44' W 095°13'0 0.0
2017-May-22 06:00N 29°44' W 095°13'0 0.0
2017-May-22 05:30N 29°44' W 095°13'0 0.0
2017-May-22 05:00N 29°44' W 095°13'0 0.0
2017-May-22 04:30N 29°44' W 095°13'0 0.0
2017-May-22 04:00N 29°44' W 095°13'0 0.0
2017-May-22 03:30N 29°44' W 095°13'0 0.0
2017-May-22 03:00N 29°44' W 095°13'0 0.0
2017-May-22 02:30N 29°44' W 095°13'0 0.0
2017-May-22 02:00N 29°44' W 095°13'0 0.0
2017-May-22 01:30N 29°44' W 095°13'0 0.0
2017-May-22 01:00N 29°44' W 095°13'0 0.0
2017-May-22 00:30N 29°44' W 095°13'0 0.0
2017-May-22 00:01N 29°44' W 095°13'0 0.0
2017-May-21 23:30N 29°44' W 095°13'0 0.0
2017-May-21 23:00N 29°44' W 095°13'0 0.0
2017-May-21 22:30N 29°44' W 095°13'0 0.0
2017-May-21 22:00N 29°44' W 095°13'0 0.0
2017-May-21 21:29N 29°44' W 095°13'0 0.0
2017-May-21 20:59N 29°44' W 095°13'0 0.0
2017-May-21 20:30N 29°44' W 095°13'0 0.0
2017-May-21 20:00N 29°44' W 095°13'0 0.0
2017-May-21 19:19N 29°44' W 095°13'0 0.0
2017-May-21 19:00N 29°44' W 095°13'0 0.0
2017-May-21 18:27N 29°44' W 095°13'0 0.0
2017-May-21 18:00N 29°44' W 095°13'0 0.0
2017-May-21 17:30N 29°44' W 095°13'0 0.0
2017-May-21 16:52N 29°44' W 095°13'0 0.0
2017-May-21 16:16N 29°44' W 095°13'0 0.0
2017-May-21 16:00N 29°44' W 095°13'0 0.0
2017-May-21 15:25N 29°44' W 095°13'0 0.0
2017-May-21 14:50N 29°44' W 095°13'0 0.0
2017-May-21 14:29N 29°44' W 095°13'0 0.0
2017-May-21 13:30N 29°44' W 095°13'0 0.0
2017-May-21 13:01N 29°44' W 095°13'0 0.0
2017-May-21 12:25N 29°44' W 095°13'0 0.0
2017-May-21 11:59N 29°44' W 095°13'0 0.0
2017-May-21 11:27N 29°44' W 095°13'0 0.0
2017-May-21 11:00N 29°44' W 095°13'0 0.0
2017-May-21 10:17N 29°44' W 095°13'0 0.0
2017-May-21 10:00N 29°44' W 095°13'0 0.0
2017-May-21 09:30N 29°44' W 095°13'0 0.0
2017-May-21 08:54N 29°44' W 095°13'0 0.0
2017-May-21 08:30N 29°44' W 095°13'0 0.0
2017-May-21 08:00N 29°44' W 095°13'0 0.0
2017-May-21 07:27N 29°44' W 095°13'0 0.0
2017-May-21 06:59N 29°44' W 095°13'0 0.0
2017-May-21 06:30N 29°44' W 095°13'0 0.0
2017-May-21 06:00N 29°44' W 095°13'0 0.0
2017-May-21 05:30N 29°44' W 095°13'0 0.0
2017-May-21 05:00N 29°44' W 095°13'0 0.4
2017-May-21 04:29N 29°43' W 095°13'2 3.8
2017-May-21 03:56N 29°45' W 095°11'2 3.9
2017-May-21 03:30N 29°44' W 095°09'3 5.1
2017-May-21 02:59N 29°45' W 095°06'3 2.6
2017-May-21 01:39N 29°47' W 095°04'1 0.6
2017-May-21 00:41N 29°47' W 095°04'1 5.6
2017-May-21 00:27N 29°46' W 095°05'  
2017-May-18 05:46N 29°46' W 095°06'2 4.2
2017-May-18 05:24N 29°47' W 095°04'0 0.1
2017-May-18 04:43N 29°47' W 095°04'1 3.9
2017-May-18 04:26N 29°46' W 095°05'2 4.5
2017-May-18 04:00N 29°44' W 095°03'2 4.7
2017-May-18 03:30N 29°43' W 095°01'2 4.7
2017-May-18 03:00N 29°41' W 094°59'3 5.2
2017-May-18 02:30N 29°39' W 094°58'3 5.4
2017-May-18 02:00N 29°37' W 094°57'3 5.4
2017-May-18 01:30N 29°34' W 094°55'3 5.5
2017-May-18 01:00N 29°32' W 094°54'3 5.8
2017-May-18 00:28N 29°29' W 094°52'  

Dump ship's entire track history